Time;durP1;ratioP1;P1;durP2;ratioP2;P2;SDS_P1;SDS_P2;PMS_P1;PMS_P2;Temp;Humidity;BMP_temperature;BMP_pressure;BME280_temperature;BME280_humidity;BME280_pressure;Samples;Min_cycle;Max_cycle;Signal;HPM_P1;HPM_P2
2021/06/22 00:00:33;;;;;;;11.63;8.63;;;17.20;99.90;;;;;;5074623;28;20496;-80
2021/06/22 00:02:59;;;;;;;12.00;8.48;;;17.20;99.90;;;;;;5073637;28;20060;-80
2021/06/22 00:05:27;;;;;;;12.25;7.95;;;17.40;99.90;;;;;;5073675;28;20111;-78
2021/06/22 00:07:56;;;;;;;13.13;8.57;;;17.40;99.90;;;;;;5073766;28;20040;-79
2021/06/22 00:10:30;;;;;;;10.82;8.07;;;17.30;99.90;;;;;;5073938;28;20040;-79
2021/06/22 00:12:57;;;;;;;13.60;9.43;;;16.90;99.90;;;;;;5075034;28;20028;-79
2021/06/22 00:15:26;;;;;;;14.25;8.55;;;16.90;99.90;;;;;;5074802;28;20111;-79
2021/06/22 00:17:52;;;;;;;13.00;8.40;;;17.10;99.90;;;;;;5074814;28;20464;-79
2021/06/22 00:20:21;;;;;;;11.00;8.60;;;17.10;99.90;;;;;;5073639;28;20582;-78
2021/06/22 00:22:48;;;;;;;10.32;8.00;;;17.30;99.90;;;;;;5074542;28;20036;-77
2021/06/22 00:25:16;;;;;;;10.27;8.18;;;17.30;99.90;;;;;;5074539;28;20121;-79
2021/06/22 00:27:42;;;;;;;14.45;8.52;;;17.20;99.90;;;;;;5074265;28;20386;-79
2021/06/22 00:30:09;;;;;;;14.32;8.50;;;17.20;99.90;;;;;;5074080;28;20028;-78
2021/06/22 00:32:36;;;;;;;10.80;7.47;;;17.20;99.90;;;;;;5074549;28;20037;-79
2021/06/22 00:35:03;;;;;;;9.65;7.75;;;17.10;99.90;;;;;;5073132;28;20071;-80
2021/06/22 00:37:29;;;;;;;10.00;7.35;;;17.10;99.90;;;;;;5072540;28;20090;-80
2021/06/22 00:39:55;;;;;;;10.60;7.65;;;17.20;99.90;;;;;;5074552;28;20024;-80
2021/06/22 00:42:20;;;;;;;9.18;6.97;;;17.20;99.90;;;;;;5074376;28;20039;-78
2021/06/22 00:44:52;;;;;;;10.40;7.80;;;17.10;99.90;;;;;;5074275;28;20028;-79
2021/06/22 00:47:18;;;;;;;9.35;7.40;;;17.00;99.90;;;;;;5072811;28;20043;-78
2021/06/22 00:49:46;;;;;;;9.90;7.40;;;16.90;99.90;;;;;;5074096;28;20032;-79
2021/06/22 00:52:12;;;;;;;9.13;6.65;;;16.90;99.90;;;;;;5056548;28;20036;-78
2021/06/22 00:54:38;;;;;;;9.13;6.63;;;16.90;99.90;;;;;;5072925;28;20113;-78
2021/06/22 00:57:09;;;;;;;9.82;6.43;;;16.90;99.90;;;;;;5074054;28;20048;-77
2021/06/22 00:59:35;;;;;;;10.93;6.57;;;16.80;99.90;;;;;;5072592;28;20035;-77
2021/06/22 01:02:04;;;;;;;8.70;6.68;;;16.80;99.90;;;;;;5073674;28;20112;-78
2021/06/22 01:04:30;;;;;;;8.73;6.50;;;16.90;99.90;;;;;;5073429;28;20029;-78
2021/06/22 01:06:57;;;;;;;9.40;6.20;;;16.80;99.90;;;;;;5073770;28;20036;-78
2021/06/22 01:09:25;;;;;;;7.25;5.43;;;16.80;99.90;;;;;;5073783;28;20085;-78
2021/06/22 01:11:51;;;;;;;7.30;5.78;;;16.90;99.90;;;;;;5073745;28;20374;-78
2021/06/22 01:14:17;;;;;;;8.68;5.72;;;16.90;99.90;;;;;;5073787;28;20035;-78
2021/06/22 01:16:43;;;;;;;7.60;5.63;;;16.90;99.90;;;;;;5073485;28;20032;-78
2021/06/22 01:19:09;;;;;;;7.80;5.85;;;16.80;99.90;;;;;;5073432;28;20043;-77
2021/06/22 01:21:37;;;;;;;8.15;5.88;;;16.70;99.90;;;;;;5072112;28;20036;-77
2021/06/22 01:24:13;;;;;;;7.82;5.68;;;16.60;99.90;;;;;;5072318;28;20107;-78
2021/06/22 01:26:52;;;;;;;7.38;5.63;;;16.60;99.90;;;;;;5073014;28;20036;-78
2021/06/22 01:29:18;;;;;;;7.45;5.32;;;16.60;99.90;;;;;;5088931;28;20038;-78
2021/06/22 01:31:45;;;;;;;8.30;5.63;;;16.60;99.90;;;;;;5071687;28;20048;-77
2021/06/22 01:34:11;;;;;;;7.78;4.97;;;16.60;99.90;;;;;;5073037;28;20394;-78
2021/06/22 01:36:40;;;;;;;7.32;5.53;;;16.70;99.90;;;;;;5071829;28;20024;-79
2021/06/22 01:39:12;;;;;;;6.90;5.22;;;16.60;99.90;;;;;;5072017;28;20028;-77
2021/06/22 01:41:38;;;;;;;6.70;5.32;;;16.60;99.90;;;;;;5071982;28;20025;-78
2021/06/22 01:44:05;;;;;;;9.02;5.30;;;16.50;99.90;;;;;;5071916;28;20035;-78
2021/06/22 01:46:31;;;;;;;7.38;5.38;;;16.50;99.90;;;;;;5072927;28;20051;-79
2021/06/22 01:48:57;;;;;;;9.15;5.90;;;16.50;99.90;;;;;;5054401;28;20036;-78
2021/06/22 01:51:23;;;;;;;6.75;5.45;;;16.50;99.90;;;;;;5073072;28;20033;-77
2021/06/22 01:53:55;;;;;;;7.25;5.20;;;16.50;99.90;;;;;;5071359;28;20071;-78
2021/06/22 01:56:22;;;;;;;7.07;5.32;;;16.60;99.90;;;;;;5091371;28;20029;-79
2021/06/22 01:58:48;;;;;;;6.75;5.35;;;16.60;99.90;;;;;;5057611;28;20036;-77
2021/06/22 02:01:14;;;;;;;7.53;5.15;;;16.70;99.90;;;;;;5074542;28;20025;-77
2021/06/22 02:03:40;;;;;;;7.22;5.03;;;16.50;99.90;;;;;;5072328;28;20081;-77
2021/06/22 02:06:06;;;;;;;8.50;5.70;;;16.50;99.90;;;;;;5072662;28;20028;-76
2021/06/22 02:08:33;;;;;;;8.13;5.10;;;16.40;99.90;;;;;;5072608;28;20040;-78
2021/06/22 02:11:00;;;;;;;7.25;5.35;;;16.30;99.90;;;;;;5071596;28;20400;-78
2021/06/22 02:13:28;;;;;;;6.65;5.43;;;16.30;99.90;;;;;;5073409;28;20090;-76
2021/06/22 02:15:55;;;;;;;10.48;5.05;;;16.20;99.90;;;;;;5076130;28;20039;-77
2021/06/22 02:18:21;;;;;;;6.25;4.75;;;16.30;99.90;;;;;;5077616;28;20025;-77
2021/06/22 02:20:47;;;;;;;6.78;4.80;;;16.10;99.90;;;;;;5076845;28;20037;-76
2021/06/22 02:23:13;;;;;;;6.85;4.97;;;16.00;99.90;;;;;;5078248;28;20115;-77
2021/06/22 02:25:40;;;;;;;6.95;4.93;;;16.10;99.90;;;;;;5060024;28;20032;-77
2021/06/22 02:28:13;;;;;;;10.13;5.40;;;16.10;99.90;;;;;;5077377;28;20500;-76
2021/06/22 02:30:41;;;;;;;6.45;5.25;;;16.20;99.90;;;;;;5074321;28;20079;-76
2021/06/22 02:33:08;;;;;;;7.20;5.03;;;16.20;99.90;;;;;;5071146;28;20466;-76
2021/06/22 02:35:35;;;;;;;6.60;4.65;;;16.20;99.90;;;;;;5072420;28;20039;-77
2021/06/22 02:38:01;;;;;;;6.05;4.47;;;16.20;99.90;;;;;;5087735;28;20078;-77
2021/06/22 02:40:27;;;;;;;6.03;4.68;;;16.10;99.90;;;;;;5072297;28;20048;-77
2021/06/22 02:42:53;;;;;;;6.55;4.82;;;16.10;99.90;;;;;;5072033;28;20431;-75
2021/06/22 02:45:21;;;;;;;6.53;4.57;;;16.20;99.90;;;;;;5072105;28;20032;-75
2021/06/22 02:47:48;;;;;;;7.05;4.95;;;16.20;99.90;;;;;;5070767;28;20111;-75
2021/06/22 02:50:16;;;;;;;7.18;4.50;;;16.10;99.90;;;;;;5072388;28;20033;-75
2021/06/22 02:52:42;;;;;;;9.27;4.50;;;16.10;99.90;;;;;;5070588;28;20067;-76
2021/06/22 02:55:19;;;;;;;6.72;4.90;;;16.00;99.90;;;;;;5072208;28;20028;-74
2021/06/22 02:57:51;;;;;;;9.00;4.70;;;15.90;99.90;;;;;;5071934;28;20551;-75
2021/06/22 03:00:21;;;;;;;6.80;4.20;;;16.00;99.90;;;;;;5073817;28;20466;-75
2021/06/22 03:02:46;;;;;;;7.03;4.10;;;16.20;99.90;;;;;;5074564;28;20062;-77
2021/06/22 03:05:13;;;;;;;5.85;3.85;;;16.40;99.90;;;;;;5076128;28;20029;-76
2021/06/22 03:07:39;;;;;;;7.95;3.80;;;16.60;99.90;;;;;;5075915;28;20042;-75
2021/06/22 03:10:12;;;;;;;5.78;3.95;;;16.50;99.90;;;;;;5074850;28;20032;-75
2021/06/22 03:12:39;;;;;;;5.55;3.50;;;16.60;99.90;;;;;;5075623;28;20029;-76
2021/06/22 03:15:08;;;;;;;6.03;3.53;;;16.70;99.90;;;;;;5091391;28;20037;-75
2021/06/22 03:17:35;;;;;;;6.95;3.40;;;16.70;99.90;;;;;;5075947;28;20075;-75
2021/06/22 03:20:05;;;;;;;6.00;3.80;;;16.70;99.90;;;;;;5076069;28;20025;-75
2021/06/22 03:22:31;;;;;;;5.75;3.90;;;16.70;99.90;;;;;;5075985;28;20370;-74
2021/06/22 03:24:57;;;;;;;6.55;3.75;;;16.60;99.90;;;;;;5075349;28;20032;-75
2021/06/22 03:27:23;;;;;;;5.38;4.03;;;16.80;99.90;;;;;;5075641;28;20041;-75
2021/06/22 03:29:48;;;;;;;5.45;3.92;;;16.70;99.90;;;;;;5075250;28;20035;-76
2021/06/22 03:32:14;;;;;;;4.60;3.33;;;16.70;99.90;;;;;;5075201;28;20139;-75
2021/06/22 03:34:40;;;;;;;7.40;3.28;;;16.90;99.90;;;;;;5075106;28;20101;-74
2021/06/22 03:37:07;;;;;;;7.22;4.40;;;16.90;99.90;;;;;;5074326;28;20381;-74
2021/06/22 03:39:34;;;;;;;4.07;3.15;;;16.70;99.90;;;;;;5075192;28;20028;-75
2021/06/22 03:42:00;;;;;;;4.68;3.65;;;16.70;99.90;;;;;;5075083;28;20598;-75
2021/06/22 03:44:26;;;;;;;4.85;3.35;;;16.60;99.90;;;;;;5075418;28;20040;-74
2021/06/22 03:46:52;;;;;;;8.45;3.55;;;16.80;99.90;;;;;;5075009;28;20043;-75
2021/06/22 03:49:17;;;;;;;4.72;3.40;;;16.80;99.90;;;;;;5075371;28;20032;-75
2021/06/22 03:51:44;;;;;;;5.65;3.58;;;16.70;99.90;;;;;;5074935;28;20043;-75
2021/06/22 03:54:10;;;;;;;6.80;4.05;;;16.40;99.90;;;;;;5075215;28;20071;-75
2021/06/22 03:56:36;;;;;;;4.45;3.25;;;16.40;99.90;;;;;;5074932;28;20043;-74
2021/06/22 03:59:02;;;;;;;6.72;3.50;;;16.50;99.90;;;;;;5071098;28;20029;-75
2021/06/22 04:01:28;;;;;;;7.43;3.40;;;16.70;99.90;;;;;;5074204;28;20041;-82
2021/06/22 04:03:53;;;;;;;4.30;3.10;;;16.50;99.90;;;;;;5070224;28;20241;-80
2021/06/22 04:06:19;;;;;;;5.57;3.83;;;16.90;99.90;;;;;;5055377;28;20033;-81
2021/06/22 04:08:45;;;;;;;5.85;3.20;;;17.00;99.90;;;;;;5054984;28;20454;-82
2021/06/22 04:11:13;;;;;;;5.18;3.65;;;16.70;99.90;;;;;;5065844;28;20525;-83
2021/06/22 04:13:40;;;;;;;5.00;3.53;;;16.40;99.90;;;;;;5075185;28;20472;-77
2021/06/22 04:16:09;;;;;;;5.05;3.45;;;16.30;99.90;;;;;;5075191;28;20062;-80
2021/06/22 04:18:35;;;;;;;3.70;2.80;;;16.30;99.90;;;;;;5073854;28;20107;-80
2021/06/22 04:21:01;;;;;;;5.38;3.28;;;16.30;99.90;;;;;;5074968;28;20067;-81
2021/06/22 04:23:29;;;;;;;3.45;2.55;;;16.50;99.90;;;;;;5075120;28;20040;-81
2021/06/22 04:25:55;;;;;;;4.68;3.15;;;16.50;99.90;;;;;;5073707;28;20045;-80
2021/06/22 04:28:21;;;;;;;3.88;2.70;;;16.70;99.90;;;;;;5074770;28;20043;-79
2021/06/22 04:30:47;;;;;;;4.43;3.40;;;16.80;99.90;;;;;;5074541;28;20056;-79
2021/06/22 04:33:13;;;;;;;5.30;2.50;;;16.90;99.90;;;;;;5074571;28;20095;-83
2021/06/22 04:35:39;;;;;;;5.90;2.50;;;17.00;99.90;;;;;;5072703;28;20040;-76
2021/06/22 04:38:06;;;;;;;4.07;2.72;;;16.90;99.90;;;;;;5073088;28;20037;-76
2021/06/22 04:40:35;;;;;;;6.18;2.50;;;17.20;99.90;;;;;;5073142;28;20531;-75
2021/06/22 04:43:01;;;;;;;2.95;1.92;;;17.50;99.90;;;;;;5056146;28;20469;-78
2021/06/22 04:45:29;;;;;;;3.25;2.17;;;18.00;99.90;;;;;;5072891;28;20085;-80
2021/06/22 04:47:56;;;;;;;6.80;2.50;;;18.10;99.90;;;;;;5074225;28;20393;-80
2021/06/22 04:50:23;;;;;;;2.72;1.80;;;18.10;99.90;;;;;;5073305;28;20466;-79
2021/06/22 04:52:49;;;;;;;4.32;2.13;;;18.30;99.90;;;;;;5072749;28;20155;-80
2021/06/22 04:55:16;;;;;;;4.28;1.55;;;18.50;99.90;;;;;;5073891;28;20108;-68
2021/06/22 04:57:45;;;;;;;4.82;2.20;;;18.30;99.90;;;;;;5073555;28;20031;-66
2021/06/22 05:00:14;;;;;;;3.85;2.00;;;18.60;99.90;;;;;;5072552;28;20037;-67
2021/06/22 05:02:41;;;;;;;2.20;1.50;;;18.40;99.90;;;;;;5073490;28;20036;-70
2021/06/22 05:05:08;;;;;;;4.18;2.10;;;18.40;99.90;;;;;;5073432;28;20029;-68
2021/06/22 05:07:34;;;;;;;5.22;2.22;;;18.50;99.90;;;;;;5071947;28;20081;-68
2021/06/22 05:10:00;;;;;;;2.78;1.73;;;18.50;99.90;;;;;;5073397;28;20033;-69
2021/06/22 05:12:26;;;;;;;4.20;1.90;;;18.50;99.90;;;;;;5072224;28;20046;-69
2021/06/22 05:14:52;;;;;;;2.95;1.88;;;18.40;99.90;;;;;;5073018;28;20111;-68
2021/06/22 05:17:18;;;;;;;5.20;2.08;;;18.10;99.90;;;;;;5073415;28;20089;-68
2021/06/22 05:19:44;;;;;;;3.00;2.13;;;18.50;99.90;;;;;;5072990;28;20033;-68
2021/06/22 05:22:10;;;;;;;1.98;1.45;;;18.30;99.90;;;;;;5070563;28;20127;-69
2021/06/22 05:24:39;;;;;;;3.00;1.70;;;18.80;99.90;;;;;;5071438;28;20099;-68
2021/06/22 05:27:09;;;;;;;3.00;1.80;;;18.30;99.90;;;;;;5071459;28;20095;-68
2021/06/22 05:29:36;;;;;;;3.67;2.13;;;18.40;99.90;;;;;;5039297;28;20028;-68
2021/06/22 05:32:03;;;;;;;9.57;2.40;;;18.30;99.90;;;;;;5072554;28;20052;-68
2021/06/22 05:34:30;;;;;;;6.35;2.10;;;18.50;99.90;;;;;;5071837;28;20132;-68
2021/06/22 05:36:56;;;;;;;2.80;1.73;;;19.00;99.90;;;;;;5072732;28;20029;-68
2021/06/22 05:39:22;;;;;;;2.78;1.77;;;19.10;99.90;;;;;;5072729;28;20500;-68
2021/06/22 05:41:47;;;;;;;3.53;1.50;;;19.00;99.90;;;;;;5072761;28;20021;-68
2021/06/22 05:44:13;;;;;;;3.72;1.90;;;18.80;99.90;;;;;;5072946;28;20025;-68
2021/06/22 05:46:39;;;;;;;2.67;1.80;;;18.30;99.90;;;;;;5072827;28;20032;-68
2021/06/22 05:49:05;;;;;;;7.18;2.38;;;18.20;99.90;;;;;;5072555;28;20035;-69
2021/06/22 05:51:31;;;;;;;2.40;1.55;;;18.30;99.90;;;;;;5072444;28;20036;-67
2021/06/22 05:53:56;;;;;;;3.13;1.58;;;18.60;99.90;;;;;;5070934;28;20517;-68
2021/06/22 05:56:22;;;;;;;9.20;2.83;;;19.00;99.90;;;;;;5052619;28;20390;-68
2021/06/22 05:58:48;;;;;;;2.50;1.40;;;19.00;99.90;;;;;;5067719;28;20029;-67
2021/06/22 06:01:14;;;;;;;2.47;1.40;;;19.20;99.90;;;;;;5052618;28;20099;-69
2021/06/22 06:03:40;;;;;;;2.83;1.70;;;19.10;99.90;;;;;;5062880;28;20028;-68
2021/06/22 06:06:06;;;;;;;7.65;1.75;;;18.70;99.90;;;;;;5071946;28;20033;-69
2021/06/22 06:08:33;;;;;;;6.18;1.83;;;18.90;99.90;;;;;;5072325;28;20044;-68
2021/06/22 06:11:01;;;;;;;2.22;1.45;;;19.00;99.90;;;;;;5072034;28;20028;-68
2021/06/22 06:13:37;;;;;;;2.83;1.60;;;19.20;99.90;;;;;;5072256;28;20086;-68
2021/06/22 06:16:07;;;;;;;2.72;1.52;;;19.30;99.90;;;;;;5072351;28;20025;-68
2021/06/22 06:18:33;;;;;;;3.28;1.58;;;19.30;99.90;;;;;;5072678;28;20024;-68
2021/06/22 06:21:00;;;;;;;6.78;1.80;;;18.90;99.90;;;;;;5087588;28;20028;-68
2021/06/22 06:23:31;;;;;;;1.88;1.23;;;19.10;99.90;;;;;;5072436;28;20039;-67
2021/06/22 06:25:57;;;;;;;;;;;19.00;99.90;;;;;;5072164;28;20032;-68
2021/06/22 06:28:30;;;;;;;3.58;1.73;;;19.20;99.90;;;;;;5071245;28;19951;-68
2021/06/22 06:30:56;;;;;;;2.30;1.35;;;19.40;99.90;;;;;;5070612;28;20075;-68
2021/06/22 06:33:22;;;;;;;4.53;1.90;;;19.30;99.90;;;;;;5072057;28;20478;-68
2021/06/22 06:35:48;;;;;;;3.53;1.52;;;19.60;99.90;;;;;;5072080;28;20036;-68
2021/06/22 06:38:13;;;;;;;2.83;1.60;;;19.50;99.90;;;;;;5072553;28;20394;-68
2021/06/22 06:40:40;;;;;;;3.08;1.45;;;19.40;99.90;;;;;;5071850;28;20131;-67
2021/06/22 06:43:06;;;;;;;4.68;2.60;;;19.40;99.90;;;;;;5087363;28;20064;-68
2021/06/22 06:45:31;;;;;;;3.20;1.80;;;19.20;99.90;;;;;;5071259;28;20072;-68
2021/06/22 06:47:57;;;;;;;4.65;2.35;;;19.20;99.90;;;;;;5072028;28;20429;-68
2021/06/22 06:50:23;;;;;;;4.45;2.10;;;19.20;99.90;;;;;;5070811;28;20473;-68
2021/06/22 06:52:49;;;;;;;5.18;1.50;;;19.10;99.90;;;;;;5072200;28;20042;-69
2021/06/22 06:55:40;;;;;;;2.33;1.30;;;18.90;99.90;;;;;;5071736;28;20512;-68
2021/06/22 06:58:06;;;;;;;;;;;18.90;99.90;;;;;;5071249;28;20033;-68
2021/06/22 07:04:43;;;;;;;4.40;1.65;;;19.00;99.90;;;;;;5082850;22;20078;-68
2021/06/22 07:07:08;;;;;;;3.08;1.63;;;18.90;99.90;;;;;;5017594;28;20061;-69
2021/06/22 07:09:34;;;;;;;2.85;1.45;;;18.80;99.90;;;;;;5034321;28;20102;-69
2021/06/22 07:12:00;;;;;;;4.07;1.42;;;19.00;99.90;;;;;;5051607;28;20627;-68
2021/06/22 07:14:26;;;;;;;4.32;1.85;;;19.10;99.90;;;;;;5034195;28;20033;-68
2021/06/22 07:16:52;;;;;;;3.35;1.30;;;19.20;99.90;;;;;;5051458;28;20036;-68
2021/06/22 07:19:18;;;;;;;2.05;1.30;;;19.50;99.90;;;;;;5017366;28;20025;-69
2021/06/22 07:21:46;;;;;;;5.68;1.42;;;19.40;99.90;;;;;;5051559;28;20047;-69
2021/06/22 07:24:11;;;;;;;2.38;1.60;;;19.30;99.90;;;;;;5051744;28;20025;-69
2021/06/22 07:26:38;;;;;;;2.50;1.70;;;19.50;99.90;;;;;;5051728;28;20029;-69
2021/06/22 07:29:06;;;;;;;2.33;1.50;;;19.70;99.90;;;;;;5017357;28;20033;-69
2021/06/22 07:31:33;;;;;;;3.47;2.05;;;19.70;99.90;;;;;;5033998;28;20044;-68
2021/06/22 07:33:59;;;;;;;2.97;1.75;;;19.10;99.90;;;;;;5051237;28;20029;-68
2021/06/22 07:36:25;;;;;;;3.50;2.13;;;19.30;99.90;;;;;;5051729;28;20025;-68
2021/06/22 07:38:51;;;;;;;34.13;18.80;;;19.00;99.90;;;;;;5034131;28;20389;-68
2021/06/22 07:41:17;;;;;;;14.68;8.82;;;19.00;99.90;;;;;;5051186;28;20079;-69
2021/06/22 07:43:45;;;;;;;4.00;1.52;;;18.90;99.90;;;;;;5051454;28;20037;-69
2021/06/22 07:46:11;;;;;;;4.68;1.83;;;18.80;99.90;;;;;;5034775;28;20045;-69
2021/06/22 07:48:37;;;;;;;4.28;2.00;;;18.90;99.90;;;;;;5055272;28;20036;-69
2021/06/22 07:51:03;;;;;;;2.78;1.77;;;19.10;99.90;;;;;;5054859;28;20033;-69
2021/06/22 07:53:29;;;;;;;5.03;2.28;;;19.30;99.90;;;;;;5037324;28;20029;-69
2021/06/22 07:55:55;;;;;;;3.40;1.80;;;19.20;99.90;;;;;;5054701;28;20492;-68
2021/06/22 07:58:20;;;;;;;4.53;2.47;;;19.40;99.90;;;;;;5033598;28;20394;-68
2021/06/22 08:00:46;;;;;;;2.42;1.73;;;19.40;99.90;;;;;;5035060;28;20034;-68
2021/06/22 08:03:21;;;;;;;3.05;1.90;;;19.40;99.90;;;;;;5034333;28;20046;-68
2021/06/22 08:05:50;;;;;;;2.65;1.70;;;19.70;99.90;;;;;;5034942;28;20034;-69
2021/06/22 08:08:18;;;;;;;4.78;2.00;;;19.60;99.90;;;;;;5034576;28;20029;-69
2021/06/22 08:10:47;;;;;;;3.80;2.40;;;19.30;99.90;;;;;;5033721;28;20037;-69
2021/06/22 08:13:14;;;;;;;6.53;2.28;;;19.30;99.90;;;;;;5033044;28;20470;-68
2021/06/22 08:15:40;;;;;;;3.67;2.50;;;19.40;99.90;;;;;;5034017;28;20044;-68
2021/06/22 08:18:07;;;;;;;3.92;2.10;;;19.40;99.90;;;;;;5033144;28;20038;-68
2021/06/22 08:20:36;;;;;;;4.32;2.65;;;19.40;99.90;;;;;;5034650;28;20036;-69
2021/06/22 08:23:04;;;;;;;3.03;1.95;;;19.30;99.90;;;;;;5034136;28;20063;-69
2021/06/22 08:25:30;;;;;;;5.13;2.20;;;19.40;99.90;;;;;;5034537;28;20033;-69
2021/06/22 08:27:56;;;;;;;5.45;2.40;;;19.30;99.90;;;;;;5034170;28;20116;-69
2021/06/22 08:30:25;;;;;;;5.05;2.42;;;19.00;99.90;;;;;;5034229;28;20120;-69
2021/06/22 08:32:51;;;;;;;5.95;2.72;;;19.10;99.90;;;;;;5032970;28;20033;-68
2021/06/22 08:35:17;;;;;;;4.45;2.88;;;19.20;99.90;;;;;;5034259;28;20033;-68
2021/06/22 08:37:43;;;;;;;8.48;2.45;;;19.20;99.90;;;;;;5034042;28;20136;-69
2021/06/22 08:40:11;;;;;;;16.52;9.93;;;19.20;99.90;;;;;;5032738;28;20025;-69
2021/06/22 08:42:40;;;;;;;5.13;2.90;;;19.10;99.90;;;;;;5032886;28;20435;-69
2021/06/22 08:45:10;;;;;;;3.80;2.30;;;19.10;99.90;;;;;;5034035;28;20029;-68
2021/06/22 08:47:36;;;;;;;8.05;2.75;;;19.30;99.90;;;;;;5032948;28;20663;-69
2021/06/22 08:50:05;;;;;;;3.75;2.60;;;19.30;99.90;;;;;;5032784;28;20049;-69
2021/06/22 08:52:32;;;;;;;10.15;3.80;;;19.20;99.90;;;;;;5032759;28;20029;-69
2021/06/22 08:54:59;;;;;;;3.97;2.63;;;19.10;99.90;;;;;;5033923;28;20159;-69
2021/06/22 08:57:26;;;;;;;5.80;2.45;;;19.00;99.90;;;;;;5033518;28;20036;-70
2021/06/22 08:59:53;;;;;;;3.92;2.63;;;19.10;99.90;;;;;;5033917;28;20048;-69
2021/06/22 09:02:25;;;;;;;4.68;2.75;;;19.40;99.90;;;;;;5033312;28;20041;-69
2021/06/22 09:04:56;;;;;;;5.18;2.60;;;19.40;99.90;;;;;;5015622;28;20072;-69
2021/06/22 09:07:48;;;;;;;3.53;2.55;;;19.70;99.90;;;;;;5032171;28;20040;-69
2021/06/22 09:10:27;;;;;;;4.20;2.78;;;19.70;99.90;;;;;;5033269;28;20040;-69
2021/06/22 09:12:54;;;;;;;3.92;2.75;;;20.00;99.90;;;;;;5033681;28;20529;-69
2021/06/22 09:15:26;;;;;;;4.85;2.80;;;20.30;99.90;;;;;;5032201;28;20033;-69
2021/06/22 09:17:52;;;;;;;6.57;2.80;;;20.10;99.90;;;;;;5033258;28;20029;-70
2021/06/22 09:20:42;;;;;;;3.78;2.65;;;20.30;99.90;;;;;;5033309;28;20037;-69
2021/06/22 09:23:22;;;;;;;3.80;2.88;;;20.30;99.90;;;;;;5033031;28;20032;-69
2021/06/22 09:25:50;;;;;;;3.45;2.33;;;20.30;99.90;;;;;;5033133;28;20418;-70
2021/06/22 09:28:21;;;;;;;4.53;2.40;;;20.30;99.90;;;;;;5033043;28;20132;-69
2021/06/22 09:31:00;;;;;;;4.13;2.85;;;20.10;99.90;;;;;;5033428;28;20041;-69
2021/06/22 09:33:54;;;;;;;4.28;2.40;;;20.00;99.90;;;;;;5033372;28;20306;-69
2021/06/22 09:36:28;;;;;;;3.45;2.17;;;19.90;99.90;;;;;;5015819;28;20033;-69
2021/06/22 09:39:08;;;;;;;3.00;2.00;;;19.90;99.90;;;;;;5033388;28;20455;-69
2021/06/22 09:41:37;;;;;;;3.45;2.15;;;19.80;99.90;;;;;;5033596;28;20036;-69
2021/06/22 09:44:17;;;;;;;3.10;2.10;;;19.90;99.90;;;;;;5033161;28;20505;-70
2021/06/22 09:46:51;;;;;;;4.70;2.60;;;19.80;99.90;;;;;;5033034;28;20033;-69
2021/06/22 09:49:19;;;;;;;4.70;2.10;;;19.80;99.90;;;;;;5032897;28;20046;-69
2021/06/22 09:54:49;;;;;;;3.13;1.92;;;20.10;99.90;;;;;;5031442;28;20112;-69
2021/06/22 09:57:25;;;;;;;2.97;1.85;;;20.30;99.90;;;;;;5032785;28;20044;-69
2021/06/22 10:00:09;;;;;;;2.85;2.05;;;20.10;99.90;;;;;;5032511;28;20034;-70
2021/06/22 10:02:55;;;;;;;2.65;1.85;;;20.00;99.90;;;;;;5031439;28;20041;-69
2021/06/22 10:05:21;;;;;;;4.63;2.08;;;20.10;99.90;;;;;;5032284;28;20368;-68
2021/06/22 10:07:56;;;;;;;3.10;1.60;;;20.30;99.90;;;;;;5031415;28;20036;-69
2021/06/22 10:10:36;;;;;;;4.70;1.90;;;20.40;99.90;;;;;;5032107;28;20028;-69
2021/06/22 10:13:02;;;;;;;3.35;1.70;;;20.50;99.90;;;;;;5032341;28;20120;-69
2021/06/22 10:15:28;;;;;;;3.40;1.90;;;20.60;99.90;;;;;;5032382;28;20052;-69
2021/06/22 10:17:53;;;;;;;3.08;1.88;;;20.70;99.90;;;;;;5031120;28;20423;-69
2021/06/22 10:20:20;;;;;;;3.17;1.88;;;20.90;99.90;;;;;;5032248;28;20117;-69
2021/06/22 10:22:47;;;;;;;5.45;1.70;;;20.90;99.90;;;;;;5030897;28;20038;-69
2021/06/22 10:25:14;;;;;;;4.35;2.00;;;21.20;99.90;;;;;;5030779;28;20029;-69
2021/06/22 10:27:40;;;;;;;3.50;1.38;;;21.10;99.90;;;;;;5014148;28;20154;-69
2021/06/22 10:30:10;;;;;;;5.25;2.30;;;21.30;99.90;;;;;;5032311;28;20498;-69
2021/06/22 10:32:37;;;;;;;3.97;2.67;;;21.10;99.90;;;;;;5014427;28;20393;-69
2021/06/22 10:35:14;;;;;;;3.03;1.42;;;20.80;99.90;;;;;;5032073;28;20033;-68
2021/06/22 10:38:01;;;;;;;3.78;1.98;;;21.20;99.90;;;;;;5030517;28;20041;-69
2021/06/22 10:40:30;;;;;;;2.30;1.58;;;21.20;99.90;;;;;;5031797;28;20041;-68
2021/06/22 10:43:01;;;;;;;3.13;1.73;;;21.30;99.90;;;;;;5014156;28;20065;-68
2021/06/22 10:45:27;;;;;;;4.30;1.70;;;21.20;99.90;;;;;;5032006;28;20119;-69
2021/06/22 10:48:01;;;;;;;2.30;1.52;;;20.80;99.90;;;;;;5032029;28;20034;-69
2021/06/22 10:50:27;;;;;;;2.72;1.73;;;20.90;99.90;;;;;;5031915;28;20033;-68
2021/06/22 10:52:58;;;;;;;2.67;1.65;;;20.90;99.90;;;;;;5030564;28;20038;-68
2021/06/22 10:55:40;;;;;;;3.42;1.80;;;20.80;99.90;;;;;;5032017;28;20037;-69
2021/06/22 10:58:06;;;;;;;3.38;1.75;;;20.50;99.90;;;;;;5030375;28;20493;-69
2021/06/22 11:00:42;;;;;;;7.45;1.83;;;20.30;99.90;;;;;;5032016;28;20033;-69
2021/06/22 11:03:28;;;;;;;2.78;1.83;;;20.30;99.90;;;;;;5030399;28;20418;-69
2021/06/22 11:06:03;;;;;;;3.17;1.70;;;20.30;99.90;;;;;;5031903;28;20390;-69
2021/06/22 11:08:41;;;;;;;2.45;1.55;;;20.30;99.90;;;;;;5031483;28;20037;-69
2021/06/22 11:11:07;;;;;;;2.38;1.33;;;20.40;99.90;;;;;;5030873;28;20034;-69
2021/06/22 11:13:53;;;;;;;1.90;1.42;;;20.40;99.90;;;;;;5031713;28;20383;-68
2021/06/22 11:16:19;;;;;;;3.42;1.50;;;20.00;99.90;;;;;;5030397;28;20501;-69
2021/06/22 11:18:59;;;;;;;3.38;1.60;;;20.00;99.90;;;;;;5031932;28;20037;-69
2021/06/22 11:21:41;;;;;;;2.60;1.60;;;19.90;99.90;;;;;;5033258;28;20040;-69
2021/06/22 11:24:25;;;;;;;4.28;1.60;;;19.90;99.90;;;;;;5035758;28;20045;-69
2021/06/22 11:26:54;;;;;;;2.20;1.42;;;19.90;99.90;;;;;;5035493;28;20489;-68
2021/06/22 11:29:21;;;;;;;3.47;2.13;;;20.00;99.90;;;;;;5035228;28;20409;-69
2021/06/22 11:31:59;;;;;;;3.10;1.70;;;20.20;99.90;;;;;;5035431;28;20029;-69
2021/06/22 11:34:30;;;;;;;3.65;1.50;;;20.30;99.90;;;;;;5035232;28;20025;-68
2021/06/22 11:37:16;;;;;;;3.03;1.52;;;20.40;99.90;;;;;;5035648;28;20042;-69
2021/06/22 11:40:22;;;;;;;2.28;1.60;;;20.40;99.90;;;;;;5035082;28;20494;-70
2021/06/22 11:43:07;;;;;;;3.08;1.48;;;20.60;99.90;;;;;;5014620;28;20046;-69
2021/06/22 11:45:34;;;;;;;3.00;1.70;;;20.70;99.90;;;;;;5035058;28;20029;-70
2021/06/22 11:48:02;;;;;;;4.18;1.67;;;20.60;99.90;;;;;;5035115;28;20064;-69
2021/06/22 11:50:30;;;;;;;2.15;1.40;;;20.50;99.90;;;;;;5034913;28;20038;-70
2021/06/22 11:53:08;;;;;;;3.92;1.88;;;20.70;99.90;;;;;;5035288;28;20064;-70
2021/06/22 11:55:43;;;;;;;21.15;12.60;;;20.60;99.90;;;;;;5017136;28;20441;-70
2021/06/22 11:58:09;;;;;;;2.72;1.70;;;20.30;99.90;;;;;;5035018;28;20037;-70
2021/06/22 12:00:35;;;;;;;6.05;2.55;;;20.40;99.90;;;;;;5033597;28;20081;-70
2021/06/22 12:03:03;;;;;;;3.00;1.70;;;20.40;99.90;;;;;;5034760;28;20053;-69
2021/06/22 12:05:32;;;;;;;4.22;1.80;;;20.30;99.90;;;;;;5034979;28;20025;-69
2021/06/22 12:08:04;;;;;;;3.50;1.88;;;20.40;99.90;;;;;;5034540;28;20030;-70
2021/06/22 12:10:45;;;;;;;4.43;1.85;;;20.60;99.90;;;;;;5034515;28;20037;-70
2021/06/22 12:13:12;;;;;;;3.05;2.00;;;20.60;99.90;;;;;;5034293;28;20025;-70
2021/06/22 12:15:43;;;;;;;5.13;2.33;;;20.70;99.90;;;;;;5034629;28;20037;-70
2021/06/22 12:18:09;;;;;;;5.82;2.30;;;20.70;99.90;;;;;;5033615;28;20029;-69
2021/06/22 12:20:40;;;;;;;2.60;1.73;;;20.40;99.90;;;;;;5034468;28;20038;-69
2021/06/22 12:23:16;;;;;;;3.67;1.80;;;20.50;99.90;;;;;;5034409;28;20096;-68
2021/06/22 12:26:03;;;;;;;5.88;2.00;;;20.20;99.90;;;;;;5034692;28;20026;-69
2021/06/22 12:28:33;;;;;;;5.00;2.70;;;20.20;99.90;;;;;;5016685;28;20033;-69
2021/06/22 12:31:01;;;;;;;4.57;2.20;;;20.20;99.90;;;;;;5034284;28;20040;-69
2021/06/22 12:33:35;;;;;;;2.95;2.17;;;20.20;99.90;;;;;;5033590;28;20055;-69
2021/06/22 12:36:04;;;;;;;4.32;2.60;;;20.00;99.90;;;;;;5033282;28;20033;-69
2021/06/22 12:38:31;;;;;;;5.40;2.85;;;19.90;99.90;;;;;;5034216;28;20040;-69
2021/06/22 12:41:04;;;;;;;3.45;2.55;;;19.60;99.90;;;;;;5034146;28;20104;-69
2021/06/22 12:43:49;;;;;;;5.15;2.83;;;19.50;99.90;;;;;;5032571;28;20033;-69
2021/06/22 12:46:19;;;;;;;4.68;2.65;;;19.30;99.90;;;;;;5033826;28;20032;-69
2021/06/22 12:48:47;;;;;;;5.57;3.08;;;19.20;99.90;;;;;;5033908;28;20041;-69
2021/06/22 12:51:15;;;;;;;4.72;3.38;;;19.10;99.90;;;;;;5032607;28;20025;-69
2021/06/22 12:53:45;;;;;;;7.20;3.45;;;19.10;99.90;;;;;;5033843;28;20104;-68
2021/06/22 12:56:18;;;;;;;5.95;3.95;;;19.00;99.90;;;;;;5032644;28;20029;-69
2021/06/22 12:58:44;;;;;;;6.63;3.53;;;19.00;99.90;;;;;;5033410;28;20061;-69
2021/06/22 13:01:35;;;;;;;6.47;3.60;;;18.90;99.90;;;;;;5033984;28;20030;-69